Time;durP1;ratioP1;P1;durP2;ratioP2;P2;SDS_P1;SDS_P2;PMS_P1;PMS_P2;Temp;Humidity;BMP_temperature;BMP_pressure;BME280_temperature;BME280_humidity;BME280_pressure;Samples;Min_cycle;Max_cycle;Signal;HPM_P1;HPM_P2
2022/07/14 00:01:24;;;;;;;2.75;1.35;;;;;;;19.07;40.60;95398.53;4811349;29;20216;-66
2022/07/14 00:03:50;;;;;;;2.88;1.40;;;;;;;19.24;40.07;95404.38;4814314;29;20241;-66
2022/07/14 00:06:16;;;;;;;1.30;1.10;;;;;;;19.05;41.07;95406.72;4804560;29;20233;-66
2022/07/14 00:08:47;;;;;;;1.92;1.00;;;;;;;19.03;40.95;95405.25;4809154;29;20237;-67
2022/07/14 00:11:13;;;;;;;1.10;1.00;;;;;;;18.97;40.29;95400.72;4805316;29;20236;-68
2022/07/14 00:13:38;;;;;;;2.95;1.15;;;;;;;18.84;41.33;95404.91;4812620;29;20210;-65
2022/07/14 00:16:04;;;;;;;2.83;1.35;;;;;;;18.90;41.43;95406.81;4817220;29;20308;-67
2022/07/14 00:18:30;;;;;;;2.10;1.08;;;;;;;18.85;41.57;95403.09;4808830;29;20241;-67
2022/07/14 00:20:55;;;;;;;1.25;1.10;;;;;;;18.83;41.71;95407.78;4809744;29;20238;-67
2022/07/14 00:23:22;;;;;;;1.60;1.13;;;;;;;18.91;41.25;95408.47;4817981;29;20293;-67
2022/07/14 00:25:48;;;;;;;1.50;1.05;;;;;;;18.87;41.34;95412.53;4807314;29;20205;-66
2022/07/14 00:28:13;;;;;;;3.50;1.38;;;;;;;18.84;41.90;95412.91;4808337;29;20249;-67
2022/07/14 00:30:39;;;;;;;3.72;1.10;;;;;;;18.78;42.46;95416.34;4818415;29;20222;-66
2022/07/14 00:33:04;;;;;;;2.13;1.30;;;;;;;18.80;42.87;95401.00;4805754;29;20229;-67
2022/07/14 00:35:30;;;;;;;5.45;1.85;;;;;;;18.79;43.06;95410.03;4820521;29;20250;-66
2022/07/14 00:37:55;;;;;;;5.50;1.90;;;;;;;18.66;43.68;95396.56;4805800;29;20215;-67
2022/07/14 00:40:21;;;;;;;3.20;1.85;;;;;;;18.54;44.49;95401.56;4807503;29;20214;-67
2022/07/14 00:42:50;;;;;;;4.90;1.95;;;;;;;18.42;44.74;95406.59;4806575;29;20339;-67
2022/07/14 00:45:19;;;;;;;3.40;1.90;;;;;;;18.51;44.71;95396.63;4815102;29;20229;-66
2022/07/14 00:47:46;;;;;;;3.67;1.52;;;;;;;18.56;44.69;95409.38;4812294;29;20248;-68
2022/07/14 00:50:13;;;;;;;2.25;1.85;;;;;;;18.46;45.19;95412.34;4809595;29;20314;-66
2022/07/14 00:52:43;;;;;;;3.60;2.25;;;;;;;18.28;46.10;95412.78;4807505;29;20224;-66
2022/07/14 00:55:10;;;;;;;2.50;2.10;;;;;;;18.13;46.75;95406.72;4809919;29;20243;-66
2022/07/14 00:57:37;;;;;;;2.70;1.70;;;;;;;18.22;46.40;95402.91;4813991;29;20310;-66
2022/07/14 01:00:04;;;;;;;6.07;2.30;;;;;;;18.29;46.35;95406.47;4814938;29;20234;-65
2022/07/14 01:02:30;;;;;;;4.05;2.20;;;;;;;18.31;46.99;95401.78;4816001;29;20239;-66
2022/07/14 01:04:55;;;;;;;3.38;2.63;;;;;;;18.13;47.28;95402.22;4817054;29;20218;-67
2022/07/14 01:07:21;;;;;;;2.33;2.10;;;;;;;18.14;47.31;95395.06;4808690;29;20213;-67
2022/07/14 01:09:46;;;;;;;5.55;2.30;;;;;;;18.08;47.45;95391.31;4808519;29;20242;-66
2022/07/14 01:12:13;;;;;;;3.67;2.47;;;;;;;17.94;47.76;95393.00;4812833;29;20249;-67
2022/07/14 01:14:39;;;;;;;5.18;2.13;;;;;;;17.92;47.90;95395.03;4813498;29;20230;-66
2022/07/14 01:17:06;;;;;;;3.80;2.50;;;;;;;18.00;47.60;95399.41;4806814;29;20253;-67
2022/07/14 01:19:33;;;;;;;4.15;2.47;;;;;;;17.84;48.06;95390.66;4822074;29;20210;-67
2022/07/14 01:21:59;;;;;;;4.15;2.45;;;;;;;17.81;47.92;95396.34;4813056;29;20225;-67
2022/07/14 01:24:27;;;;;;;4.20;2.78;;;;;;;17.78;48.04;95383.38;4807124;29;20226;-67
2022/07/14 01:26:53;;;;;;;5.05;2.90;;;;;;;17.67;48.29;95393.66;4797929;29;20236;-67
2022/07/14 01:29:19;;;;;;;3.72;3.03;;;;;;;17.77;47.99;95395.03;4806532;29;20244;-67
2022/07/14 01:31:44;;;;;;;4.88;3.42;;;;;;;17.84;47.98;95392.50;4808155;29;20237;-67
2022/07/14 01:34:10;;;;;;;6.15;2.83;;;;;;;17.84;47.91;95387.97;4806543;29;20240;-67
2022/07/14 01:36:36;;;;;;;4.13;3.05;;;;;;;17.79;47.99;95393.03;4813990;29;20270;-67
2022/07/14 01:39:03;;;;;;;6.25;2.90;;;;;;;17.75;47.98;95391.75;4816535;29;20256;-66
2022/07/14 01:41:29;;;;;;;4.22;3.08;;;;;;;17.70;48.43;95390.66;4812009;29;20235;-65
2022/07/14 01:43:55;;;;;;;3.45;2.45;;;;;;;17.71;48.13;95390.47;4804158;29;20217;-66
2022/07/14 01:46:21;;;;;;;6.97;2.70;;;;;;;17.61;48.35;95382.81;4815080;29;20241;-65
2022/07/14 01:48:47;;;;;;;4.80;2.55;;;;;;;17.45;48.54;95374.19;4803366;29;20249;-65
2022/07/14 01:51:13;;;;;;;3.83;2.58;;;;;;;17.29;48.93;95369.88;4804845;29;20237;-65
2022/07/14 01:53:41;;;;;;;2.88;2.25;;;;;;;17.27;48.96;95374.56;4802938;29;20298;-65
2022/07/14 01:56:07;;;;;;;2.88;2.10;;;;;;;17.25;48.92;95372.09;4813596;29;20316;-65
2022/07/14 01:58:33;;;;;;;3.67;2.47;;;;;;;17.23;49.23;95381.25;4813549;29;20206;-66
2022/07/14 02:03:44;;;;;;;4.13;2.20;;;;;;;17.29;49.09;95385.84;4804792;29;20248;-65
2022/07/14 02:06:10;;;;;;;3.95;2.00;;;;;;;17.13;49.16;95389.50;4805918;29;20229;-64
2022/07/14 02:08:36;;;;;;;5.30;2.28;;;;;;;17.15;49.12;95385.66;4806582;29;20237;-66
2022/07/14 02:13:45;;;;;;;2.97;2.35;;;;;;;16.98;49.59;95386.84;4808405;29;20277;-66
2022/07/14 02:16:11;;;;;;;3.90;2.28;;;;;;;17.04;49.62;95380.81;4815845;29;20242;-64
2022/07/14 02:18:36;;;;;;;2.25;2.03;;;;;;;17.03;49.66;95387.13;4807207;29;20271;-65
2022/07/14 02:21:02;;;;;;;2.72;1.88;;;;;;;17.00;49.74;95392.81;4804597;29;20225;-64
2022/07/14 02:23:27;;;;;;;9.70;2.55;;;;;;;17.01;49.63;95383.00;4802359;29;20237;-66
2022/07/14 02:25:52;;;;;;;5.03;2.22;;;;;;;17.08;49.47;95394.53;4789460;29;20217;-65
2022/07/14 02:28:18;;;;;;;3.72;2.13;;;;;;;17.02;49.69;95392.63;4807769;29;20210;-66
2022/07/14 02:30:45;;;;;;;2.20;2.00;;;;;;;16.81;50.50;95398.63;4818483;29;20225;-66
2022/07/14 02:33:10;;;;;;;8.50;2.30;;;;;;;16.79;50.46;95392.69;4806065;29;20317;-66
2022/07/14 02:35:36;;;;;;;2.55;1.85;;;;;;;16.67;50.63;95393.09;4804402;29;20341;-66
2022/07/14 02:38:02;;;;;;;5.10;2.00;;;;;;;16.32;52.12;95394.56;4805737;29;20279;-67
2022/07/14 02:40:27;;;;;;;3.67;1.80;;;;;;;16.50;51.56;95397.72;4802365;29;20286;-67
2022/07/14 02:42:52;;;;;;;2.75;2.35;;;;;;;16.68;50.97;95401.88;4805879;29;20234;-67
2022/07/14 02:45:18;;;;;;;4.68;2.00;;;;;;;16.67;51.10;95405.53;4814369;29;20238;-67
2022/07/14 02:47:44;;;;;;;3.20;2.08;;;;;;;16.57;51.37;95408.44;4808831;29;20234;-67
2022/07/14 02:50:10;;;;;;;5.45;2.40;;;;;;;16.52;51.90;95397.56;4811055;29;20221;-67
2022/07/14 02:52:36;;;;;;;2.55;1.77;;;;;;;16.40;52.15;95397.16;4803320;29;20214;-66
2022/07/14 02:55:02;;;;;;;4.80;2.28;;;;;;;16.63;51.86;95402.44;4811819;29;20233;-66
2022/07/14 02:57:28;;;;;;;4.75;2.55;;;;;;;16.56;51.46;95400.66;4803615;29;20248;-65
2022/07/14 02:59:54;;;;;;;5.32;2.35;;;;;;;16.53;51.76;95404.50;4811024;29;20233;-66
2022/07/14 03:02:19;;;;;;;2.53;2.28;;;;;;;16.50;52.07;95399.56;4804476;29;20238;-66
2022/07/14 03:04:45;;;;;;;5.93;2.83;;;;;;;16.21;52.90;95398.44;4812697;29;20218;-66
2022/07/14 03:07:10;;;;;;;3.42;3.13;;;;;;;16.25;52.73;95405.06;4816840;29;20241;-66
2022/07/14 03:09:35;;;;;;;5.25;3.40;;;;;;;16.14;53.27;95415.25;4824391;29;20247;-66
2022/07/14 03:12:01;;;;;;;2.88;2.30;;;;;;;16.23;53.33;95414.22;4799371;29;20253;-67
2022/07/14 03:14:27;;;;;;;2.95;2.30;;;;;;;16.25;52.80;95421.00;4797881;29;20778;-66
2022/07/14 03:16:52;;;;;;;5.15;2.10;;;;;;;16.33;52.62;95414.78;4798900;29;20241;-66
2022/07/14 03:19:18;;;;;;;3.97;2.63;;;;;;;16.48;52.12;95420.16;4796879;29;20322;-66
2022/07/14 03:21:43;;;;;;;5.10;2.63;;;;;;;16.35;52.79;95426.03;4811714;29;20340;-66
2022/07/14 03:24:09;;;;;;;7.38;2.72;;;;;;;16.48;52.54;95420.16;4799140;29;20225;-66
2022/07/14 03:26:35;;;;;;;3.63;2.53;;;;;;;16.58;52.11;95427.88;4799076;29;20222;-66
2022/07/14 03:29:02;;;;;;;7.95;2.75;;;;;;;16.57;51.62;95429.69;4801321;29;20317;-66
2022/07/14 03:31:27;;;;;;;4.70;2.50;;;;;;;16.42;52.21;95434.13;4802749;29;20214;-65
2022/07/14 03:33:53;;;;;;;4.82;2.63;;;;;;;16.36;52.33;95433.03;4810390;29;20313;-65
2022/07/14 03:36:20;;;;;;;7.22;2.53;;;;;;;16.47;52.66;95440.56;4812836;29;20275;-65
2022/07/14 03:38:46;;;;;;;6.38;2.35;;;;;;;16.44;52.10;95435.59;4808063;29;20229;-65
2022/07/14 03:41:12;;;;;;;3.47;2.17;;;;;;;16.39;52.55;95440.63;4804952;29;20273;-66
2022/07/14 03:43:38;;;;;;;4.28;2.20;;;;;;;16.51;51.75;95433.88;4807062;29;20198;-66
2022/07/14 03:46:03;;;;;;;2.53;2.10;;;;;;;16.54;51.72;95444.16;4813259;29;20264;-66
2022/07/14 03:48:29;;;;;;;3.58;2.50;;;;;;;16.50;51.65;95444.69;4805456;29;20229;-65
2022/07/14 03:50:54;;;;;;;5.93;2.60;;;;;;;16.51;52.16;95454.28;4806171;29;20230;-65
2022/07/14 03:53:19;;;;;;;4.72;2.40;;;;;;;16.56;51.96;95451.94;4812053;29;20409;-66
2022/07/14 03:55:45;;;;;;;4.95;2.33;;;;;;;16.50;51.87;95444.69;4814613;29;20212;-65
2022/07/14 03:58:10;;;;;;;6.18;2.25;;;;;;;16.44;52.00;95448.03;4808512;29;20234;-65
2022/07/14 04:00:36;;;;;;;3.30;2.22;;;;;;;16.59;51.78;95446.25;4810678;29;20237;-66
2022/07/14 04:03:02;;;;;;;4.30;2.20;;;;;;;16.70;51.36;95443.16;4802576;29;20236;-66
2022/07/14 04:05:27;;;;;;;3.00;2.58;;;;;;;16.80;50.48;95437.66;4807661;29;20234;-66
2022/07/14 04:07:53;;;;;;;6.43;2.55;;;;;;;16.70;50.91;95435.22;4804572;29;20206;-67
2022/07/14 04:10:18;;;;;;;4.60;2.15;;;;;;;16.48;50.80;95442.19;4821008;29;20206;-66
2022/07/14 04:12:44;;;;;;;5.57;2.60;;;;;;;16.68;50.74;95442.56;4805368;29;20381;-66
2022/07/14 04:15:09;;;;;;;5.18;2.97;;;;;;;16.76;50.36;95445.13;4809561;29;20328;-66
2022/07/14 04:17:35;;;;;;;2.60;2.28;;;;;;;16.78;49.80;95447.63;4816920;29;20237;-67
2022/07/14 04:20:00;;;;;;;3.70;2.42;;;;;;;16.81;49.78;95441.94;4803511;29;20327;-67
2022/07/14 04:22:27;;;;;;;5.68;2.30;;;;;;;16.69;50.53;95449.50;4804357;29;20248;-67
2022/07/14 04:24:52;;;;;;;5.55;2.55;;;;;;;16.53;50.70;95445.16;4804741;29;20225;-67
2022/07/14 04:27:18;;;;;;;4.05;2.17;;;;;;;16.59;50.73;95454.22;4809421;29;20226;-66
2022/07/14 04:29:43;;;;;;;5.65;2.20;;;;;;;16.66;50.50;95457.00;4805750;29;20238;-66
2022/07/14 04:32:10;;;;;;;4.22;2.30;;;;;;;16.71;50.55;95462.59;4806516;29;20221;-65
2022/07/14 04:34:35;;;;;;;4.13;2.00;;;;;;;16.76;50.73;95461.06;4803691;29;20243;-67
2022/07/14 04:37:01;;;;;;;4.50;2.20;;;;;;;16.77;49.92;95461.91;4814084;29;20226;-67
2022/07/14 04:39:26;;;;;;;5.65;2.20;;;;;;;16.88;50.03;95455.34;4811790;29;20238;-66
2022/07/14 04:41:52;;;;;;;3.65;2.20;;;;;;;17.00;49.38;95467.19;4806538;29;20241;-67
2022/07/14 04:44:17;;;;;;;6.43;2.65;;;;;;;17.05;48.95;95464.81;4808777;29;20317;-67
2022/07/14 04:46:43;;;;;;;3.55;2.40;;;;;;;17.18;48.01;95459.69;4808945;29;20198;-66
2022/07/14 04:52:04;;;;;;;4.85;2.47;;;;;;;17.12;47.50;95476.38;4810530;29;20359;-65
2022/07/14 04:54:34;;;;;;;3.20;2.78;;;;;;;17.18;47.17;95472.97;4808164;29;20222;-65
2022/07/14 04:57:01;;;;;;;4.60;2.42;;;;;;;17.40;47.33;95476.59;4816024;29;20230;-67
2022/07/14 04:59:28;;;;;;;3.97;2.60;;;;;;;17.09;48.94;95473.25;4791040;29;20226;-66
2022/07/14 05:01:53;;;;;;;4.25;2.60;;;;;;;16.87;49.89;95478.44;4804168;29;20268;-66
2022/07/14 05:04:19;;;;;;;4.97;2.63;;;;;;;17.19;48.60;95472.00;4806278;29;20206;-66
2022/07/14 05:06:46;;;;;;;4.50;2.60;;;;;;;17.35;47.98;95475.50;4806836;29;20226;-66
2022/07/14 05:09:14;;;;;;;3.88;2.22;;;;;;;17.46;47.50;95477.69;4804413;29;20226;-66
2022/07/14 05:11:40;;;;;;;5.65;2.47;;;;;;;17.54;47.39;95472.28;4800514;29;20234;-67
2022/07/14 05:14:06;;;;;;;2.58;2.38;;;;;;;17.61;46.94;95475.88;4803117;29;20245;-66
2022/07/14 05:16:31;;;;;;;4.30;2.75;;;;;;;17.63;46.77;95478.31;4808086;29;20325;-67
2022/07/14 05:18:57;;;;;;;4.18;2.58;;;;;;;17.67;46.84;95476.97;4810874;29;20217;-66
2022/07/14 05:21:23;;;;;;;2.90;2.40;;;;;;;17.69;47.15;95474.91;4806807;29;20235;-66
2022/07/14 05:23:49;;;;;;;5.65;3.05;;;;;;;17.82;47.06;95471.66;4815083;29;20234;-66
2022/07/14 05:26:15;;;;;;;5.25;3.83;;;;;;;17.86;47.41;95480.91;4814749;29;20230;-66
2022/07/14 05:28:41;;;;;;;9.65;6.63;;;;;;;17.88;47.72;95475.41;4812835;29;20249;-65
2022/07/14 05:31:07;;;;;;;8.15;4.32;;;;;;;18.05;46.93;95463.53;4806363;29;20222;-66
2022/07/14 05:33:33;;;;;;;5.68;2.95;;;;;;;18.12;46.98;95463.59;4808239;29;20230;-68
2022/07/14 05:35:58;;;;;;;6.43;3.00;;;;;;;18.10;46.88;95469.13;4803816;29;20253;-66
2022/07/14 05:38:24;;;;;;;5.80;2.83;;;;;;;18.20;46.33;95476.78;4805858;29;20263;-66
2022/07/14 05:40:50;;;;;;;6.13;3.00;;;;;;;18.22;46.54;95477.44;4818883;29;20213;-66
2022/07/14 05:43:16;;;;;;;4.45;2.75;;;;;;;18.21;46.51;95478.47;4806554;29;20237;-66
2022/07/14 05:45:41;;;;;;;12.10;6.90;;;;;;;18.33;46.59;95489.44;4811790;29;20237;-65
2022/07/14 05:48:07;;;;;;;7.38;4.03;;;;;;;18.34;47.11;95485.78;4804996;29;20237;-65
2022/07/14 05:50:32;;;;;;;5.43;3.30;;;;;;;18.43;46.67;95474.81;4801041;29;20309;-65
2022/07/14 05:52:57;;;;;;;5.15;2.90;;;;;;;18.50;46.58;95481.03;4818781;29;20210;-65
2022/07/14 05:55:23;;;;;;;3.88;3.00;;;;;;;18.51;46.92;95477.34;4803663;29;20245;-66
2022/07/14 05:57:49;;;;;;;5.75;4.18;;;;;;;18.57;46.90;95473.09;4811405;29;20225;-66
2022/07/14 06:00:15;;;;;;;9.00;3.67;;;;;;;18.58;46.70;95466.78;4808417;29;20234;-65
2022/07/14 06:02:42;;;;;;;6.13;3.15;;;;;;;18.71;46.44;95474.88;4802915;29;20237;-65
2022/07/14 06:05:08;;;;;;;6.47;3.38;;;;;;;18.80;46.08;95458.78;4807919;29;20206;-66
2022/07/14 06:07:33;;;;;;;6.10;3.60;;;;;;;18.77;47.05;95460.00;4806548;29;20210;-66
2022/07/14 06:10:01;;;;;;;11.77;3.70;;;;;;;18.78;46.74;95466.97;4810892;29;20294;-66
2022/07/14 06:12:27;;;;;;;6.40;4.07;;;;;;;18.87;46.71;95462.31;4802170;29;20233;-66
2022/07/14 06:14:52;;;;;;;7.05;3.42;;;;;;;18.98;46.30;95459.16;4805287;29;20220;-66
2022/07/14 06:17:18;;;;;;;6.60;3.28;;;;;;;19.03;45.84;95454.06;4805399;29;20318;-67
2022/07/14 06:19:43;;;;;;;6.00;3.25;;;;;;;19.15;45.37;95451.69;4815586;29;20206;-66
2022/07/14 06:22:09;;;;;;;6.00;3.53;;;;;;;19.12;45.57;95452.06;4807601;29;20587;-66
2022/07/14 06:24:37;;;;;;;8.23;3.22;;;;;;;19.14;45.68;95447.38;4810288;29;20237;-66
2022/07/14 06:27:02;;;;;;;4.57;2.88;;;;;;;19.36;43.95;95450.81;4816837;29;20308;-67
2022/07/14 06:29:27;;;;;;;5.47;4.10;;;;;;;19.29;43.74;95442.75;4802501;29;20248;-67
2022/07/14 06:31:55;;;;;;;9.45;3.55;;;;;;;19.35;43.68;95446.47;4803684;29;20274;-66
2022/07/14 06:34:22;;;;;;;6.25;2.95;;;;;;;19.35;43.92;95447.31;4811395;29;20209;-66
2022/07/14 06:36:47;;;;;;;6.82;3.67;;;;;;;19.41;44.76;95452.91;4811141;29;20222;-66
2022/07/14 06:39:14;;;;;;;7.78;3.38;;;;;;;19.48;44.40;95451.06;4805519;29;20226;-65
2022/07/14 06:41:40;;;;;;;5.22;3.03;;;;;;;19.54;44.63;95450.28;4800869;29;20504;-65
2022/07/14 06:44:05;;;;;;;5.22;3.10;;;;;;;19.69;44.31;95445.69;4810652;29;20214;-65
2022/07/14 06:46:32;;;;;;;6.53;2.90;;;;;;;19.76;44.55;95443.88;4811444;29;20274;-66
2022/07/14 06:48:58;;;;;;;3.88;2.65;;;;;;;19.75;44.96;95450.25;4808202;29;20245;-66
2022/07/14 06:51:24;;;;;;;5.03;2.78;;;;;;;19.71;44.36;95456.97;4821326;29;20249;-66
2022/07/14 06:53:50;;;;;;;4.40;2.22;;;;;;;19.80;41.58;95447.78;4802675;29;20226;-65
2022/07/14 06:56:15;;;;;;;3.33;2.05;;;;;;;19.79;41.97;95438.13;4801906;29;20234;-66
2022/07/14 06:58:41;;;;;;;2.60;1.90;;;;;;;19.90;42.34;95443.94;4801795;29;20208;-66
2022/07/14 07:01:07;;;;;;;4.65;2.05;;;;;;;20.00;42.13;95441.72;4808962;29;20222;-66
2022/07/14 07:03:32;;;;;;;6.57;2.53;;;;;;;20.08;41.75;95438.06;4804249;29;20222;-66
2022/07/14 07:08:42;;;;;;;3.80;2.28;;;;;;;20.15;42.09;95426.34;4804263;29;20240;-66
2022/07/14 07:11:09;;;;;;;5.35;2.05;;;;;;;20.18;41.47;95417.97;4808314;29;20250;-65
2022/07/14 07:13:36;;;;;;;3.22;2.20;;;;;;;20.30;41.15;95420.84;4805257;29;20210;-66
2022/07/14 07:16:07;;;;;;;3.63;2.58;;;;;;;20.37;40.40;95423.50;4803147;29;20240;-66
2022/07/14 07:18:37;;;;;;;3.30;2.38;;;;;;;20.40;40.48;95423.94;4809038;29;20234;-66
2022/07/14 07:21:03;;;;;;;4.07;2.45;;;;;;;20.35;40.17;95420.25;4812479;29;20226;-66
2022/07/14 07:23:30;;;;;;;4.97;3.13;;;;;;;20.42;40.64;95423.72;4803770;29;20312;-66
2022/07/14 07:25:55;;;;;;;8.18;2.75;;;;;;;20.48;40.52;95420.28;4807229;29;20309;-66
2022/07/14 07:28:21;;;;;;;2.58;2.38;;;;;;;20.54;40.85;95424.00;4823032;29;20234;-67
2022/07/14 07:30:46;;;;;;;3.70;2.55;;;;;;;20.65;41.00;95424.22;4806600;29;20248;-66
2022/07/14 07:33:12;;;;;;;6.20;3.03;;;;;;;20.76;40.53;95427.31;4807093;29;20394;-66
2022/07/14 07:35:38;;;;;;;6.38;3.00;;;;;;;20.81;40.14;95424.84;4808248;29;20281;-66
2022/07/14 07:38:04;;;;;;;7.85;3.00;;;;;;;20.79;40.66;95421.53;4811027;29;20213;-66
2022/07/14 07:40:29;;;;;;;6.82;2.95;;;;;;;20.87;39.79;95421.34;4809126;29;20218;-64
2022/07/14 07:42:55;;;;;;;5.13;2.47;;;;;;;20.82;40.06;95426.47;4805036;29;20233;-66
2022/07/14 07:45:21;;;;;;;5.45;2.60;;;;;;;20.84;40.19;95424.44;4813313;29;20245;-65
2022/07/14 07:47:46;;;;;;;6.43;2.33;;;;;;;20.98;39.16;95418.03;4817275;29;20238;-67
2022/07/14 07:50:12;;;;;;;6.47;2.35;;;;;;;21.06;38.33;95417.00;4815328;29;20226;-67
2022/07/14 07:52:38;;;;;;;4.40;2.17;;;;;;;21.18;37.68;95420.72;4806241;29;20245;-66
2022/07/14 07:55:09;;;;;;;2.58;2.03;;;;;;;21.20;37.33;95415.13;4809952;29;20234;-66
2022/07/14 07:57:36;;;;;;;8.48;1.95;;;;;;;21.25;37.55;95418.00;4810761;29;20245;-66
2022/07/14 08:00:03;;;;;;;4.80;1.70;;;;;;;21.26;36.84;95411.66;4809634;29;20225;-65
2022/07/14 08:02:28;;;;;;;4.43;1.70;;;;;;;21.23;36.79;95407.53;4819698;29;20234;-66
2022/07/14 08:04:54;;;;;;;5.53;2.05;;;;;;;21.27;37.53;95399.91;4817120;29;20214;-65
2022/07/14 08:07:19;;;;;;;6.38;1.73;;;;;;;21.38;37.03;95407.31;4807506;29;20201;-66
2022/07/14 08:09:45;;;;;;;3.63;1.67;;;;;;;21.35;37.60;95405.03;4814582;29;20241;-66
2022/07/14 08:12:10;;;;;;;7.38;2.03;;;;;;;21.41;37.25;95406.94;4812247;29;20245;-65
2022/07/14 08:14:48;;;;;;;3.85;1.60;;;;;;;21.54;36.49;95392.66;4804999;29;20230;-64
2022/07/14 08:17:14;;;;;;;4.82;1.95;;;;;;;21.55;37.67;95392.47;4807625;29;20233;-65
2022/07/14 08:19:40;;;;;;;4.35;2.00;;;;;;;21.61;37.42;95398.00;4815835;29;20230;-65
2022/07/14 08:22:05;;;;;;;5.15;1.58;;;;;;;21.74;35.64;95392.63;4807945;29;20237;-66
2022/07/14 08:24:31;;;;;;;1.88;1.30;;;;;;;21.58;35.97;95389.38;4804573;29;20260;-65
2022/07/14 08:26:57;;;;;;;4.00;1.60;;;;;;;21.67;36.20;95394.47;4803628;29;20290;-66
2022/07/14 08:29:22;;;;;;;4.88;1.60;;;;;;;21.73;35.82;95391.78;4804524;29;20237;-66
2022/07/14 08:31:48;;;;;;;4.13;1.50;;;;;;;21.78;35.48;95393.81;4814022;29;20267;-67
2022/07/14 08:34:14;;;;;;;2.88;1.42;;;;;;;21.78;35.15;95386.63;4805491;29;20352;-67
2022/07/14 08:36:40;;;;;;;6.72;1.60;;;;;;;21.72;34.32;95379.44;4805618;29;20237;-68
2022/07/14 08:39:05;;;;;;;5.88;1.70;;;;;;;21.82;34.27;95376.31;4822710;29;20241;-66
2022/07/14 08:41:35;;;;;;;2.20;1.65;;;;;;;21.79;34.77;95379.41;4815580;29;20238;-66
2022/07/14 08:44:02;;;;;;;1.55;1.38;;;;;;;21.86;34.96;95379.38;4806680;29;20214;-66
2022/07/14 08:46:27;;;;;;;2.83;1.60;;;;;;;21.96;34.23;95366.34;4813218;29;20255;-64
2022/07/14 08:48:54;;;;;;;3.33;1.50;;;;;;;21.92;34.43;95357.09;4819458;29;20233;-65
2022/07/14 08:51:20;;;;;;;4.93;1.83;;;;;;;22.00;34.50;95364.91;4804798;29;20233;-65
2022/07/14 08:53:47;;;;;;;2.85;1.70;;;;;;;22.09;34.11;95371.63;4805114;29;20340;-65
2022/07/14 08:56:13;;;;;;;2.45;1.58;;;;;;;22.25;33.50;95367.66;4805525;29;20317;-65
2022/07/14 08:58:40;;;;;;;2.00;1.48;;;;;;;22.22;33.71;95365.41;4807145;29;20214;-64
2022/07/14 09:01:05;;;;;;;6.20;1.60;;;;;;;22.26;33.46;95357.75;4812562;29;20230;-65
2022/07/14 09:03:31;;;;;;;4.15;1.30;;;;;;;22.27;33.61;95368.28;4809294;29;20264;-64
2022/07/14 09:05:58;;;;;;;3.92;1.70;;;;;;;22.37;34.30;95357.06;4812281;29;20701;-65
2022/07/14 09:08:23;;;;;;;4.20;1.73;;;;;;;22.51;33.33;95352.41;4805110;29;20491;-66
2022/07/14 09:10:50;;;;;;;4.80;1.60;;;;;;;22.62;32.92;95357.91;4814898;29;20277;-65
2022/07/14 09:13:21;;;;;;;1.58;1.30;;;;;;;22.59;32.98;95362.91;4821504;29;20242;-67
2022/07/14 09:15:48;;;;;;;3.70;1.40;;;;;;;22.61;33.24;95355.44;4805197;29;20263;-66
2022/07/14 09:18:25;;;;;;;2.97;1.55;;;;;;;22.66;33.62;95352.94;4801731;29;20249;-66
2022/07/14 09:20:52;;;;;;;1.55;1.45;;;;;;;22.72;33.05;95352.06;4806048;29;20229;-64
2022/07/14 09:23:32;;;;;;;3.47;1.35;;;;;;;22.79;33.10;95350.13;4803116;29;20269;-64
2022/07/14 09:26:16;;;;;;;3.17;1.60;;;;;;;22.95;33.50;95338.03;4807662;29;20234;-64
2022/07/14 09:28:44;;;;;;;2.20;1.63;;;;;;;23.00;33.31;95342.78;4808323;29;20213;-63
2022/07/14 09:31:22;;;;;;;3.90;1.67;;;;;;;23.08;33.84;95345.97;4815447;29;20218;-63
2022/07/14 09:33:56;;;;;;;4.57;1.63;;;;;;;23.28;32.95;95335.06;4805062;29;20237;-63
2022/07/14 09:36:33;;;;;;;2.95;1.30;;;;;;;23.30;32.79;95332.13;4802310;29;20229;-63
2022/07/14 09:39:09;;;;;;;4.50;1.42;;;;;;;23.47;33.04;95335.03;4805462;29;20253;-63
2022/07/14 09:41:59;;;;;;;1.55;1.40;;;;;;;23.45;31.58;95329.91;4806866;29;20792;-64
2022/07/14 09:44:25;;;;;;;1.83;1.30;;;;;;;23.58;32.10;95328.94;4791113;29;20313;-63
2022/07/14 09:46:54;;;;;;;3.63;1.52;;;;;;;23.61;31.69;95328.47;4813841;29;20312;-64
2022/07/14 09:49:23;;;;;;;2.35;1.30;;;;;;;23.82;32.04;95329.03;4804315;29;20213;-63
2022/07/14 09:51:54;;;;;;;4.40;2.17;;;;;;;24.02;30.88;95328.78;4802313;29;20252;-63
2022/07/14 09:54:44;;;;;;;3.38;2.08;;;;;;;24.13;31.06;95328.00;4804854;29;20384;-64
2022/07/14 09:57:12;;;;;;;2.88;1.55;;;;;;;24.26;30.69;95322.44;4805918;29;20241;-64
2022/07/14 09:59:50;;;;;;;2.95;1.48;;;;;;;24.40;29.78;95329.28;4804598;29;20229;-64
2022/07/14 10:02:21;;;;;;;5.47;1.65;;;;;;;24.30;29.96;95320.09;4803769;29;20241;-64
2022/07/14 10:04:48;;;;;;;3.47;1.95;;;;;;;24.43;29.20;95333.34;4806541;29;20245;-64
2022/07/14 10:07:15;;;;;;;5.78;1.65;;;;;;;24.48;29.71;95317.38;4794061;29;20229;-65
2022/07/14 10:09:50;;;;;;;1.60;1.45;;;;;;;24.61;29.40;95319.84;4803575;29;20235;-64
2022/07/14 10:12:16;;;;;;;1.67;1.40;;;;;;;24.80;29.19;95320.56;4804350;29;20245;-65
2022/07/14 10:14:43;;;;;;;2.85;1.52;;;;;;;24.95;29.02;95317.41;4802875;29;20393;-63
2022/07/14 10:17:09;;;;;;;2.13;1.10;;;;;;;25.03;28.46;95313.56;4811493;29;20233;-64
2022/07/14 10:19:36;;;;;;;5.20;1.50;;;;;;;25.08;28.45;95310.97;4804396;29;20212;-64
2022/07/14 10:22:02;;;;;;;5.47;2.17;;;;;;;25.05;28.18;95301.50;4806148;29;20238;-64
2022/07/14 10:24:29;;;;;;;2.17;1.20;;;;;;;25.09;28.56;95305.34;4804016;29;20632;-63
2022/07/14 10:26:56;;;;;;;2.50;1.80;;;;;;;25.21;28.26;95300.00;4802814;29;20233;-63
2022/07/14 10:29:22;;;;;;;3.97;1.40;;;;;;;25.08;28.02;95287.59;4802250;29;20246;-63
2022/07/14 10:32:08;;;;;;;1.70;1.50;;;;;;;25.21;28.21;95291.13;4807289;29;20272;-63
2022/07/14 10:34:39;;;;;;;2.40;1.50;;;;;;;25.34;27.36;95292.72;4801082;29;20384;-63
2022/07/14 10:37:11;;;;;;;3.25;1.75;;;;;;;25.38;27.63;95291.19;4805481;29;20236;-63
2022/07/14 10:40:14;;;;;;;2.25;1.40;;;;;;;25.56;28.89;95284.84;4807376;29;20252;-64
2022/07/14 10:42:50;;;;;;;2.30;1.42;;;;;;;25.81;29.43;95279.91;4807238;29;20221;-64
2022/07/14 10:45:16;;;;;;;5.53;1.45;;;;;;;26.11;27.73;95284.25;4803441;29;20336;-64
2022/07/14 10:47:53;;;;;;;2.50;1.13;;;;;;;26.10;27.17;95280.75;4810195;29;20226;-64
2022/07/14 10:50:25;;;;;;;1.88;1.00;;;;;;;26.17;27.08;95275.22;4809217;29;20229;-64
2022/07/14 10:52:54;;;;;;;1.77;1.42;;;;;;;26.18;26.53;95277.66;4817312;29;20212;-65
2022/07/14 10:55:32;;;;;;;2.53;1.25;;;;;;;26.44;27.39;95272.72;4804867;29;20209;-64
2022/07/14 10:58:04;;;;;;;4.85;1.60;;;;;;;26.52;27.29;95272.34;4808508;29;20230;-64
2022/07/14 11:00:45;;;;;;;3.05;1.58;;;;;;;26.77;26.67;95269.19;4804676;29;20238;-64
2022/07/14 11:03:18;;;;;;;5.45;1.52;;;;;;;26.86;26.61;95266.06;4800932;29;20238;-65
2022/07/14 11:06:11;;;;;;;3.17;1.45;;;;;;;26.93;26.58;95264.03;4809901;29;20807;-66
2022/07/14 11:09:04;;;;;;;6.10;1.98;;;;;;;26.86;25.56;95266.88;4802574;29;20457;-67
2022/07/14 11:11:30;;;;;;;5.35;1.52;;;;;;;26.69;24.97;95263.41;4803127;29;20718;-67
2022/07/14 11:14:01;;;;;;;2.80;1.58;;;;;;;26.84;25.18;95264.47;4804404;29;20217;-69
2022/07/14 11:16:46;;;;;;;1.80;1.50;;;;;;;27.04;26.15;95255.00;4808664;29;20216;-67
2022/07/14 11:19:21;;;;;;;3.13;1.40;;;;;;;27.16;26.31;95257.56;4820843;29;20287;-67
2022/07/14 11:22:14;;;;;;;5.78;1.90;;;;;;;27.37;25.26;95264.09;4805496;29;20292;-66
2022/07/14 11:24:59;;;;;;;3.00;1.42;;;;;;;27.54;24.16;95255.94;4805969;29;20229;-67
2022/07/14 11:27:48;;;;;;;2.20;1.40;;;;;;;27.64;24.42;95258.72;4802825;29;20230;-66
2022/07/14 11:30:21;;;;;;;3.00;1.50;;;;;;;27.77;23.73;95257.53;4803681;29;20569;-67
2022/07/14 11:33:01;;;;;;;2.60;1.52;;;;;;;27.64;23.41;95242.53;4807473;29;20302;-66
2022/07/14 11:38:39;;;;;;;4.28;1.90;;;;;;;27.76;24.54;95237.00;4803315;29;20321;-66
2022/07/14 11:41:13;;;;;;;1.92;1.73;;;;;;;28.05;23.95;95234.88;4800982;29;20567;-66
2022/07/14 11:43:44;;;;;;;2.85;1.67;;;;;;;28.02;23.19;95236.22;4802113;29;20360;-66
2022/07/14 11:46:15;;;;;;;5.30;1.65;;;;;;;27.95;23.53;95240.19;4800294;29;20226;-66
2022/07/14 11:48:50;;;;;;;6.93;2.45;;;;;;;28.21;24.23;95238.53;4807331;29;20301;-66
2022/07/14 11:51:31;;;;;;;3.33;1.48;;;;;;;28.44;23.74;95232.00;4809694;29;20230;-66